• Join FlightAware (Why Join?)
  • Login
  • US Flag 
02:39AM EST


 

Airport Tracker/Info


-or-


 

Live Flight TrackerFlight Track Log ✈ N5510V ✈ 23-Aug-2013 ✈ 1G0 - KPTK

Flight Track Log - Related Links

Times and Time Zones

All times are in EDT time to prevent confusion due to time zone crossing. See the N5510V flight status page for this flight to view local times or setup timezone preferences in your user account.

Time Position Orientation Groundspeed Altitude Reporting Facility
EDT Latitude Longitude Course Direction KTS MPH feet Rate Location/Type
11:23PM 41.6048 -83.5956 North  Level Estimated
11:23PM 41.5061 -83.8717 North 147 169 4,000  Level Cleveland Center
11:24PM 41.6404 -83.5898 North  Level Estimated
11:24PM 41.5536 -83.8881 346° North 148 170 4,000  Level Cleveland Center
11:25PM 41.6760 -83.5840 North  Level Estimated
11:25PM 41.5931 -83.9011 346° North 150 173 4,000  Level Cleveland Center
11:26PM 41.7117 -83.5782 North  Level Estimated
11:26PM 41.6322 -83.9144 346° North 150 173 3,900  Level Cleveland Center
11:27PM 41.7473 -83.5724 North  Level Estimated
11:27PM 41.6703 -83.8942 22° Northeast 147 169 4,000  Level Cleveland Center
11:28PM 41.7829 -83.5666 North  Level Estimated
11:28PM 41.7083 -83.8736 22° Northeast 147 169 4,000  Level Cleveland Center
11:29PM 41.7464 -83.8589 16° North 147 169 4,000  Level Cleveland Center
11:30PM 41.7867 -83.8389 20° North 146 168 4,000  Level Cleveland Center
11:31PM 41.8267 -83.8214 18° North 148 170 4,000  Level Cleveland Center
11:32PM 41.8647 -83.8008 22° Northeast 149 171 4,000  Level Cleveland Center
11:33PM 41.9047 -83.7833 18° North 149 171 4,000  Level Cleveland Center
11:34PM 41.9428 -83.7658 19° North 150 173 4,000  Level Cleveland Center
11:35PM 41.9831 -83.7481 18° North 150 173 4,000  Level Cleveland Center
11:36PM 42.0231 -83.7306 18° North 149 171 4,000  Level Cleveland Center
11:37PM 42.0633 -83.7103 20° North 150 173 4,000  Level Cleveland Center
11:38PM 42.1036 -83.6869 23° Northeast 149 171 4,000  Level Cleveland Center
11:39PM 42.1414 -83.6719 16° North 147 169 4,000  Level Cleveland Center
11:40PM 42.1817 -83.6517 20° North 144 166 4,000  Level Cleveland Center
11:41PM 42.2175 -83.6336 20° North 146 168 4,000  Level Cleveland Center
11:42PM 42.2556 -83.6186 16° North 144 166 4,000  Level Cleveland Center
11:44PM 42.2956 -83.5981 21° North 146 168 4,000 -180 Level Cleveland Center
11:45PM 42.3314 -83.5831 17° North 146 168 3,700 -420 Descending Cleveland Center
11:46PM 42.3736 -83.5625 20° North 146 168 3,200 -420 Descending Cleveland Center
11:47PM 42.4117 -83.5444 19° North 146 168 2,900 -180 Descending Cleveland Center
11:48PM 42.4497 -83.5267 19° North 145 167 2,900  Level Cleveland Center
11:49PM 42.4897 -83.5061 21° North 145 167 3,000  Climbing Cleveland Center
11:50PM 42.5294 -83.4994 North 149 171 3,000 -120 Level Cleveland Center
11:51PM 42.5714 -83.4928 North 151 174 2,800 -300 Descending Cleveland Center
11:52PM 42.6133 -83.4836 North 146 168 2,400 -540 Descending Cleveland Center
11:53PM 42.6447 -83.4767 North 105 121 1,800 -540 Descending Cleveland Center
11:54PM 42.6639 -83.4578 36° Northeast 83 96 1,400 -420 Descending Cleveland Center